Pagrindinis puslapis
METAR-TAF:

METAR-TAF

Oro uostai :

Malabas, Pusiaujo Gvinėja

platuma: 03-45-18N, ilguma: 08-42-31E, Aukštis: 23 m

Dabartinis oras

Ataskaita buvo paskelbta 49 minutes, ne 03:00 UTC
Vėjas 8 kt iš Vakarų/Pietvakarių
Temperatūra 28°C
Drėgmė 89%
Slėgis 1010 hPa
Matomumas: 4500 m
Mažai debesys ne aukštis 1000 ft
rūkana

METAR: FGSL 170300Z 25008KT 4500 BR FEW010 28/26 Q1010 NOSIG

Laikas: 04:49 (03:49 UTC)

Prognozė

Ataskaita buvo paskelbta 4 valandos ir 49 minutes, ne 23:00 UTC
Prognozė galioja nuo 17 metu 00 UTC su 18 metu 06 UTC
Vėjas 6 kt iš Vakarų/Pietvakarių
Matomumas: 6000 m
Išsisklaidę debesys ne aukštis 1300 ft
Laikinai
nuo 17 metu 04 UTC su 17 metu 09 UTC
Matomumas: 2500 m
Su prošvaistėmis ne aukštis 1200 ft
rūkana
Laikinai
nuo 17 metu 10 UTC su 17 metu 19 UTC
Matomumas: 4500 m
Su prošvaistėmis ne aukštis 1300 ft
Mažai debesys ne aukštis 2000 ft, Liūtiniai kamuoliniai debesys.
migla

TAF: FGSL 162300Z 1700/1806 24006KT 6000 SCT013 TEMPO 1704/1709 2500 BR BKN012 TEMPO 1710/1719 4500 HZ BKN013 FEW020CB

Orai ataskaitas ir orų prognozės (METAR, TAF).

turimą stotys yra geltonos ir raudonos taškus žemėlapyje.

Perkelti pele per norėdami pamatyti stoties vardą.

Tada spustelėkite, norėdami matyti oro stebėjimo ir prognozės.

Norėdami pakeisti žemėlapį: spustelėkite ant žalios mygtukų su juodo kryžiaus žemyn,; žalią mygtuką su brūkšneliu, jei norite nutolinti; arba žalių rodyklių gretimoms žemėlapius.


METAR-TAF: